createdAt,value
2018-12-12T00:01:58.760Z,11.07
2018-12-12T00:04:28.986Z,11.43
2018-12-12T00:06:59.555Z,10.96
2018-12-12T00:09:29.472Z,10.23
2018-12-12T00:11:59.561Z,11.70
2018-12-12T00:14:29.448Z,9.87
2018-12-12T00:16:59.472Z,10.93
2018-12-12T00:19:29.479Z,10.37
2018-12-12T00:21:59.475Z,11.40
2018-12-12T00:24:29.648Z,10.40
2018-12-12T00:26:59.799Z,9.80
2018-12-12T00:29:30.069Z,9.43
2018-12-12T00:32:00.264Z,9.53
2018-12-12T00:34:30.363Z,12.88
2018-12-12T00:37:00.491Z,10.60
2018-12-12T00:39:30.659Z,10.23
2018-12-12T00:42:00.719Z,11.20
2018-12-12T00:44:30.502Z,11.37
2018-12-12T00:47:00.606Z,9.73
2018-12-12T00:49:30.382Z,11.10
2018-12-12T00:52:00.852Z,9.53
2018-12-12T00:54:31.192Z,11.77
2018-12-12T00:57:01.111Z,10.17
2018-12-12T00:59:31.431Z,12.73
2018-12-12T01:02:01.416Z,10.10
2018-12-12T01:04:31.179Z,10.10
2018-12-12T01:07:01.243Z,13.23
2018-12-12T01:09:31.296Z,11.07
2018-12-12T01:12:04.425Z,10.95
2018-12-12T01:14:34.785Z,10.63
2018-12-12T01:17:04.963Z,13.27
2018-12-12T01:19:35.089Z,12.55
2018-12-12T01:22:05.178Z,11.90
2018-12-12T01:24:35.336Z,12.10
2018-12-12T01:27:05.343Z,12.58
2018-12-12T01:29:35.450Z,14.68
2018-12-12T01:32:07.948Z,13.32
2018-12-12T01:34:38.338Z,11.40
2018-12-12T01:37:08.682Z,10.40
2018-12-12T01:39:38.450Z,11.87
2018-12-12T01:42:08.313Z,13.10
2018-12-12T01:44:38.569Z,13.43
2018-12-12T01:47:08.534Z,13.45
2018-12-12T01:49:38.734Z,11.18
2018-12-12T01:52:09.010Z,12.67
2018-12-12T01:54:39.909Z,12.90
2018-12-12T01:57:10.059Z,10.85
2018-12-12T01:59:40.239Z,11.53
2018-12-12T02:02:10.263Z,10.73
2018-12-12T02:04:40.340Z,13.32
2018-12-12T02:07:10.447Z,11.57
2018-12-12T02:09:40.602Z,12.20
2018-12-12T02:12:11.655Z,12.30
2018-12-12T02:14:41.996Z,13.20
2018-12-12T02:17:12.026Z,11.70
2018-12-12T02:19:42.705Z,13.75
2018-12-12T02:22:12.768Z,14.10
2018-12-12T02:24:42.547Z,13.47
2018-12-12T02:27:12.506Z,14.83
2018-12-12T02:29:42.334Z,14.07
2018-12-12T02:32:12.376Z,11.50
2018-12-12T02:34:46.940Z,12.07
2018-12-12T02:37:16.992Z,13.28
2018-12-12T02:39:47.194Z,10.72
2018-12-12T02:42:17.635Z,16.10
2018-12-12T02:44:47.366Z,13.03
2018-12-12T02:47:18.577Z,11.68
2018-12-12T02:49:48.313Z,11.57
2018-12-12T02:52:18.463Z,12.47
2018-12-12T02:54:48.691Z,15.27
2018-12-12T02:57:18.455Z,12.80
2018-12-12T02:59:48.635Z,13.95
2018-12-12T03:02:18.547Z,12.47
2018-12-12T03:04:48.551Z,15.50
2018-12-12T03:07:18.495Z,18.47
2018-12-12T03:09:48.556Z,13.67
2018-12-12T03:12:18.288Z,13.97
2018-12-12T03:14:48.052Z,13.37
2018-12-12T03:17:18.222Z,16.80
2018-12-12T03:19:48.562Z,15.70
2018-12-12T03:22:18.540Z,15.70
2018-12-12T03:24:48.545Z,16.90
2018-12-12T03:27:18.545Z,14.27
2018-12-12T03:29:48.365Z,13.47
2018-12-12T03:32:18.537Z,12.28
2018-12-12T03:34:48.565Z,14.47
2018-12-12T03:37:21.877Z,13.90
2018-12-12T03:39:52.115Z,12.70
2018-12-12T03:42:22.395Z,14.25
2018-12-12T03:47:41.259Z,15.60
2018-12-12T03:50:11.265Z,17.43
2018-12-12T03:52:41.479Z,17.25
2018-12-12T03:55:11.540Z,16.10
2018-12-12T03:57:41.264Z,14.03
2018-12-12T04:00:11.451Z,13.53
2018-12-12T04:02:41.635Z,14.33
2018-12-12T04:05:14.222Z,13.53
2018-12-12T04:07:44.283Z,17.00
2018-12-12T04:10:24.812Z,16.23
2018-12-12T04:12:54.955Z,18.60
2018-12-12T04:15:25.036Z,19.60
2018-12-12T04:17:55.099Z,19.25
2018-12-12T04:20:25.443Z,16.55
2018-12-12T04:22:59.037Z,18.13
2018-12-12T04:25:29.188Z,36.45
2018-12-12T04:27:59.226Z,34.20
2018-12-12T04:30:29.056Z,39.80
2018-12-12T04:32:59.182Z,38.17
2018-12-12T04:35:28.954Z,34.47
2018-12-12T04:37:59.072Z,34.48
2018-12-12T04:40:29.314Z,24.95
2018-12-12T04:42:59.411Z,24.23
2018-12-12T04:45:29.582Z,23.13
2018-12-12T04:47:59.528Z,20.43
2018-12-12T04:50:29.295Z,20.67
2018-12-12T04:52:59.432Z,19.57
2018-12-12T04:55:29.534Z,27.10
2018-12-12T04:57:59.417Z,30.23
2018-12-12T05:00:29.567Z,32.50
2018-12-12T05:03:00.174Z,21.63
2018-12-12T05:05:29.944Z,18.00
2018-12-12T05:07:59.661Z,18.70
2018-12-12T05:10:29.642Z,25.73
2018-12-12T05:13:03.863Z,30.27
2018-12-12T05:15:33.877Z,31.27
2018-12-12T05:18:03.949Z,40.07
2018-12-12T05:20:34.809Z,41.10
2018-12-12T05:23:04.755Z,38.07
2018-12-12T05:25:34.762Z,35.87
2018-12-12T05:28:04.714Z,37.70
2018-12-12T05:30:34.482Z,38.23
2018-12-12T05:33:04.581Z,41.42
2018-12-12T05:35:34.839Z,46.90
2018-12-12T05:38:04.647Z,53.30
2018-12-12T05:40:35.211Z,50.37
2018-12-12T05:43:05.423Z,47.43
2018-12-12T05:45:35.759Z,45.90
2018-12-12T05:48:05.920Z,41.60
2018-12-12T05:50:36.087Z,39.10
2018-12-12T05:53:07.457Z,41.58
2018-12-12T05:55:37.444Z,45.17
2018-12-12T05:58:07.232Z,39.10
2018-12-12T06:00:37.753Z,38.50
2018-12-12T06:03:07.696Z,45.35
2018-12-12T06:05:37.484Z,49.87
2018-12-12T06:08:07.624Z,46.57
2018-12-12T06:10:38.937Z,53.55
2018-12-12T06:13:08.713Z,54.00
2018-12-12T06:15:38.585Z,54.97
2018-12-12T06:18:08.566Z,61.73
2018-12-12T06:20:38.704Z,53.33
2018-12-12T06:23:08.501Z,52.27
2018-12-12T06:25:38.725Z,45.87
2018-12-12T06:28:08.477Z,45.43
2018-12-12T06:30:38.408Z,45.47
2018-12-12T06:33:08.423Z,50.60
2018-12-12T06:35:38.200Z,48.42
2018-12-12T06:38:08.077Z,47.70
2018-12-12T06:40:38.214Z,45.08
2018-12-12T06:43:09.153Z,51.50
2018-12-12T06:45:39.403Z,48.93
2018-12-12T06:48:09.195Z,50.73
2018-12-12T06:50:39.319Z,49.75
2018-12-12T06:53:09.517Z,49.17
2018-12-12T06:55:39.927Z,50.05
2018-12-12T06:58:10.634Z,47.23
2018-12-12T07:00:40.524Z,48.80
2018-12-12T07:03:10.366Z,53.70
2018-12-12T07:05:40.479Z,54.03
2018-12-12T07:08:10.280Z,52.27
2018-12-12T07:10:40.082Z,56.30
2018-12-12T07:13:10.347Z,53.30
2018-12-12T07:15:41.757Z,56.68
2018-12-12T07:18:11.640Z,55.70
2018-12-12T07:20:41.514Z,63.63
2018-12-12T07:23:14.882Z,59.98
2018-12-12T07:25:45.371Z,60.78
2018-12-12T07:28:15.419Z,58.13
2018-12-12T07:30:45.513Z,54.70
2018-12-12T07:33:15.837Z,54.93
2018-12-12T07:35:45.819Z,53.83
2018-12-12T07:38:15.782Z,52.77
2018-12-12T07:40:45.535Z,52.83
2018-12-12T07:43:15.420Z,56.63
2018-12-12T07:45:45.347Z,53.27
2018-12-12T07:48:15.440Z,59.07
2018-12-12T07:50:46.521Z,54.10
2018-12-12T07:53:16.312Z,54.43
2018-12-12T07:55:47.178Z,59.00
2018-12-12T07:58:17.334Z,58.50
2018-12-12T08:00:47.430Z,61.33
2018-12-12T08:03:17.252Z,71.33
2018-12-12T08:05:47.414Z,70.57
2018-12-12T08:08:17.927Z,64.00
2018-12-12T08:10:48.114Z,62.62
2018-12-12T08:13:18.296Z,59.77
2018-12-12T08:15:48.053Z,50.20
2018-12-12T08:18:18.086Z,58.53
2018-12-12T08:20:48.249Z,55.70
2018-12-12T08:23:18.983Z,60.80
2018-12-12T08:25:49.099Z,67.67
2018-12-12T08:28:19.469Z,64.60
2018-12-12T08:30:49.191Z,60.37
2018-12-12T08:33:19.365Z,59.30
2018-12-12T08:35:49.449Z,56.73
2018-12-12T08:38:19.442Z,58.47
2018-12-12T08:40:49.449Z,63.67
2018-12-12T08:43:20.674Z,62.70
2018-12-12T08:45:50.483Z,62.63
2018-12-12T08:48:20.302Z,59.27
2018-12-12T08:51:01.734Z,57.33
2018-12-12T08:53:31.490Z,58.57
2018-12-12T08:56:01.539Z,57.90
2018-12-12T08:58:31.314Z,56.77
2018-12-12T09:01:01.720Z,57.53
2018-12-12T09:03:31.895Z,58.73
2018-12-12T09:06:02.627Z,63.78
2018-12-12T09:08:32.644Z,62.97
2018-12-12T09:11:02.393Z,65.17
2018-12-12T09:13:32.416Z,62.90
2018-12-12T09:16:02.242Z,69.27
2018-12-12T09:18:32.312Z,67.37
2018-12-12T09:21:02.457Z,69.20
2018-12-12T09:23:32.297Z,67.90
2018-12-12T09:26:02.178Z,69.30
2018-12-12T09:28:32.271Z,68.00
2018-12-12T09:31:02.409Z,71.07
2018-12-12T09:33:32.406Z,69.07
2018-12-12T09:36:02.452Z,74.67
2018-12-12T09:38:33.511Z,70.60
2018-12-12T09:41:03.235Z,64.53
2018-12-12T09:43:33.230Z,75.03
2018-12-12T09:46:03.224Z,75.27
2018-12-12T09:48:33.447Z,84.95
2018-12-12T09:51:07.352Z,80.23
2018-12-12T09:53:35.509Z,70.87
2018-12-12T09:56:05.288Z,74.57
2018-12-12T09:58:35.102Z,76.83
2018-12-12T10:01:06.366Z,72.10
2018-12-12T10:03:36.501Z,69.93
2018-12-12T10:06:06.592Z,65.63
2018-12-12T10:08:36.409Z,68.13
2018-12-12T10:11:07.385Z,72.30
2018-12-12T10:13:37.352Z,63.27
2018-12-12T10:16:07.364Z,72.40
2018-12-12T10:18:37.437Z,67.83
2018-12-12T10:21:07.196Z,77.77
2018-12-12T10:23:37.309Z,69.55
2018-12-12T10:26:07.443Z,68.33
2018-12-12T10:28:37.375Z,69.47
2018-12-12T10:31:07.515Z,69.63
2018-12-12T10:33:37.887Z,64.57
2018-12-12T10:36:08.260Z,73.53
2018-12-12T10:38:38.172Z,79.43
2018-12-12T10:41:08.333Z,66.20
2018-12-12T10:43:38.319Z,67.17
2018-12-12T10:46:08.748Z,62.33
2018-12-12T10:48:38.634Z,68.40
2018-12-12T10:51:08.385Z,73.13
2018-12-12T10:53:38.137Z,65.70
2018-12-12T10:56:08.318Z,72.15
2018-12-12T10:58:38.368Z,64.30
2018-12-12T11:01:13.564Z,61.73
2018-12-12T11:03:44.459Z,47.58
2018-12-12T11:06:15.047Z,15.23
2018-12-12T11:08:45.153Z,16.10
2018-12-12T11:11:15.585Z,9.83
2018-12-12T11:13:45.333Z,9.60
2018-12-12T11:16:15.065Z,7.90
2018-12-12T11:18:45.222Z,15.20
2018-12-12T11:21:15.296Z,32.23
2018-12-12T11:23:46.733Z,22.67
2018-12-12T11:26:16.559Z,18.10
2018-12-12T11:28:46.392Z,16.30
2018-12-12T11:31:16.544Z,114.27
2018-12-12T11:33:50.475Z,94.83
2018-12-12T11:36:18.667Z,59.43
2018-12-12T11:38:48.689Z,30.60
2018-12-12T11:41:19.569Z,28.83
2018-12-12T11:43:49.313Z,35.20
2018-12-12T11:46:19.285Z,49.27
2018-12-12T11:48:49.529Z,36.23
2018-12-12T11:51:19.380Z,45.87
2018-12-12T11:53:49.484Z,52.63
2018-12-12T11:56:19.486Z,60.30
2018-12-12T11:58:49.553Z,58.23
2018-12-12T12:01:19.521Z,64.77
2018-12-12T12:06:32.837Z,63.53
2018-12-12T12:09:02.779Z,63.20
2018-12-12T12:11:32.568Z,59.77
2018-12-12T12:14:02.487Z,62.60
2018-12-12T12:16:32.554Z,63.57
2018-12-12T12:19:10.275Z,71.17
2018-12-12T12:21:40.594Z,63.33
2018-12-12T12:24:11.733Z,69.90
2018-12-12T12:26:41.658Z,71.00
2018-12-12T12:29:15.693Z,64.57
2018-12-12T12:31:45.553Z,61.23
2018-12-12T12:34:15.249Z,55.37
2018-12-12T12:36:46.307Z,55.83
2018-12-12T12:39:16.573Z,54.27
2018-12-12T12:41:46.502Z,56.63
2018-12-12T12:44:16.560Z,53.47
2018-12-12T12:46:46.349Z,60.10
2018-12-12T12:49:16.584Z,58.20
2018-12-12T12:51:46.653Z,61.97
2018-12-12T12:54:16.395Z,68.50
2018-12-12T12:56:46.517Z,75.43
2018-12-12T12:59:16.450Z,86.40
2018-12-12T13:04:32.942Z,166.97
2018-12-12T13:07:03.481Z,159.12
2018-12-12T13:09:34.293Z,179.47
2018-12-12T13:12:04.867Z,214.67
2018-12-12T13:14:36.004Z,177.53
2018-12-12T13:17:06.068Z,117.67
2018-12-12T13:19:36.163Z,78.20
2018-12-12T13:22:06.574Z,59.15
2018-12-12T13:24:36.760Z,62.70
2018-12-12T13:27:06.596Z,62.90
2018-12-12T13:29:36.612Z,64.53
2018-12-12T13:32:06.337Z,69.33
2018-12-12T13:34:36.090Z,65.63
2018-12-12T13:37:06.263Z,70.00
2018-12-12T13:39:36.051Z,67.87
2018-12-12T13:42:06.100Z,58.87
2018-12-12T13:44:36.366Z,55.93
2018-12-12T13:47:06.377Z,66.20
2018-12-12T13:49:36.420Z,66.40
2018-12-12T13:52:06.368Z,61.80
2018-12-12T13:54:36.375Z,68.50
2018-12-12T13:57:07.564Z,108.10
2018-12-12T13:59:37.656Z,118.43
2018-12-12T14:02:07.562Z,82.63
2018-12-12T14:07:22.717Z,63.92
2018-12-12T14:09:52.468Z,58.50
2018-12-12T14:12:22.628Z,55.90
2018-12-12T14:14:52.789Z,58.33
2018-12-12T14:17:22.523Z,46.80
2018-12-12T14:19:52.495Z,48.23
2018-12-12T14:22:23.605Z,46.98
2018-12-12T14:25:11.132Z,53.93
2018-12-12T14:27:46.982Z,85.75
2018-12-12T14:30:17.464Z,67.53
2018-12-12T14:32:47.740Z,82.53
2018-12-12T14:35:17.437Z,62.60
2018-12-12T14:37:47.877Z,48.63
2018-12-12T14:40:18.093Z,75.73
2018-12-12T14:42:48.157Z,97.15
2018-12-12T14:45:17.941Z,103.93
2018-12-12T14:47:52.092Z,84.93
2018-12-12T14:50:22.307Z,73.02
2018-12-12T14:52:52.676Z,72.70
2018-12-12T14:55:22.386Z,104.00
2018-12-12T14:57:52.505Z,86.80
2018-12-12T15:00:22.648Z,105.23
2018-12-12T15:02:52.603Z,78.10
2018-12-12T15:05:22.737Z,99.63
2018-12-12T15:07:52.587Z,93.83
2018-12-12T15:10:23.664Z,85.95
2018-12-12T15:12:53.550Z,146.83
2018-12-12T15:15:23.679Z,173.03
2018-12-12T15:17:53.671Z,254.57
2018-12-12T15:20:23.548Z,118.93
2018-12-12T15:22:53.523Z,73.07
2018-12-12T15:25:23.507Z,67.40
2018-12-12T15:27:53.709Z,73.13
2018-12-12T15:30:23.507Z,78.00
2018-12-12T15:32:53.501Z,79.00
2018-12-12T15:35:23.503Z,76.07
2018-12-12T15:37:53.419Z,83.13
2018-12-12T15:40:23.655Z,91.40
2018-12-12T15:42:53.493Z,106.50
2018-12-12T15:45:23.686Z,113.80
2018-12-12T15:47:53.624Z,119.80
2018-12-12T15:50:23.727Z,140.93
2018-12-12T15:52:55.490Z,132.30
2018-12-12T15:55:25.670Z,119.05
2018-12-12T15:57:55.768Z,150.10
2018-12-12T16:00:27.691Z,163.70
2018-12-12T16:02:58.247Z,174.70
2018-12-12T16:05:28.741Z,171.20
2018-12-12T16:07:59.474Z,149.50
2018-12-12T16:10:29.596Z,106.13
2018-12-12T16:12:59.930Z,86.80
2018-12-12T16:15:30.455Z,109.15
2018-12-12T16:18:01.022Z,97.93
2018-12-12T16:20:31.108Z,86.08
2018-12-12T16:23:01.292Z,80.13
2018-12-12T16:25:31.394Z,92.33
2018-12-12T16:28:01.287Z,96.55
2018-12-12T16:30:31.309Z,107.10
2018-12-12T16:33:01.453Z,112.33
2018-12-12T16:35:31.834Z,89.47
2018-12-12T16:38:01.693Z,99.60
2018-12-12T16:40:32.029Z,104.93
2018-12-12T16:43:02.408Z,97.22
2018-12-12T16:45:32.219Z,119.30
2018-12-12T16:48:02.111Z,90.00
2018-12-12T16:50:32.229Z,90.05
2018-12-12T16:53:02.491Z,90.67
2018-12-12T16:55:32.344Z,92.97
2018-12-12T16:58:02.251Z,92.80
2018-12-12T17:00:32.368Z,105.05
2018-12-12T17:03:02.299Z,102.90
2018-12-12T17:05:32.544Z,90.93
2018-12-12T17:08:02.739Z,85.63
2018-12-12T17:10:32.580Z,79.87
2018-12-12T17:13:03.133Z,81.63
2018-12-12T17:15:33.121Z,81.40
2018-12-12T17:18:03.469Z,77.12
2018-12-12T17:20:33.315Z,81.47
2018-12-12T17:23:03.275Z,83.67
2018-12-12T17:25:33.430Z,81.60
2018-12-12T17:28:03.374Z,83.87
2018-12-12T17:30:33.256Z,87.70
2018-12-12T17:33:03.363Z,81.72
2018-12-12T17:35:33.413Z,79.77
2018-12-12T17:38:03.489Z,100.92
2018-12-12T17:40:35.911Z,118.00
2018-12-12T17:43:06.058Z,123.28
2018-12-12T17:48:20.221Z,151.20
2018-12-12T17:50:50.364Z,165.60
2018-12-12T17:53:20.100Z,185.47
2018-12-12T17:55:50.221Z,133.50
2018-12-12T17:58:20.577Z,116.57
2018-12-12T18:00:50.405Z,101.33
2018-12-12T18:03:20.576Z,85.73
2018-12-12T18:05:50.774Z,87.92
2018-12-12T18:08:20.723Z,86.70
2018-12-12T18:10:50.841Z,88.10
2018-12-12T18:13:21.379Z,96.37
2018-12-12T18:15:51.163Z,87.83
2018-12-12T18:18:21.529Z,91.83
2018-12-12T18:20:51.680Z,92.80
2018-12-12T18:23:21.827Z,86.37
2018-12-12T18:25:51.981Z,85.33
2018-12-12T18:28:22.196Z,131.47
2018-12-12T18:30:52.479Z,162.18
2018-12-12T18:33:22.498Z,238.97
2018-12-12T18:35:53.074Z,247.37
2018-12-12T18:38:23.290Z,261.52
2018-12-12T18:40:53.414Z,357.35
2018-12-12T18:43:27.189Z,366.93
2018-12-12T18:45:58.632Z,281.40
2018-12-12T18:48:28.584Z,226.70
2018-12-12T18:50:59.884Z,184.13
2018-12-12T18:53:30.195Z,154.68
2018-12-12T18:56:00.315Z,136.88
2018-12-12T18:58:30.341Z,109.27
2018-12-12T19:01:01.013Z,102.00
2018-12-12T19:03:35.643Z,99.37
2018-12-12T19:06:05.774Z,95.37
2018-12-12T19:08:36.020Z,92.47
2018-12-12T19:11:06.532Z,90.70
2018-12-12T19:13:37.157Z,96.70
2018-12-12T19:16:07.014Z,89.20
2018-12-12T19:18:38.279Z,92.45
2018-12-12T19:21:08.493Z,104.80
2018-12-12T19:23:39.322Z,121.03
2018-12-12T19:26:09.539Z,159.73
2018-12-12T19:28:39.391Z,136.07
2018-12-12T19:31:09.844Z,121.23
2018-12-12T19:33:41.734Z,142.00
2018-12-12T19:36:11.766Z,148.60
2018-12-12T19:38:45.617Z,168.87
2018-12-12T19:41:16.501Z,170.92
2018-12-12T19:43:49.953Z,134.97
2018-12-12T19:46:31.282Z,133.03
2018-12-12T19:49:02.195Z,121.13
2018-12-12T19:51:32.950Z,131.90
2018-12-12T19:54:04.215Z,218.78
2018-12-12T19:56:34.409Z,257.77
2018-12-12T19:59:04.542Z,301.00
2018-12-12T20:01:34.493Z,197.30
2018-12-12T20:04:04.614Z,169.10
2018-12-12T20:06:34.542Z,146.50
2018-12-12T20:09:06.622Z,191.80
2018-12-12T20:11:36.799Z,259.90
2018-12-12T20:14:06.703Z,269.07
2018-12-12T20:16:37.016Z,220.63
2018-12-12T20:19:07.557Z,187.05
2018-12-12T20:21:37.547Z,182.00
2018-12-12T20:24:07.578Z,154.50
2018-12-12T20:26:37.820Z,117.20
2018-12-12T20:29:08.121Z,101.27
2018-12-12T20:31:38.127Z,104.07
2018-12-12T20:34:08.300Z,123.03
2018-12-12T20:36:38.563Z,145.23
2018-12-12T20:39:13.712Z,134.30
2018-12-12T20:41:43.779Z,125.23
2018-12-12T20:44:23.341Z,135.03
2018-12-12T20:46:53.337Z,139.07
2018-12-12T20:49:23.677Z,137.50
2018-12-12T20:54:55.524Z,97.75
2018-12-12T20:57:25.504Z,95.57
2018-12-12T20:59:55.381Z,84.70
2018-12-12T21:02:25.594Z,101.47
2018-12-12T21:04:55.823Z,111.10
2018-12-12T21:07:25.835Z,111.30
2018-12-12T21:09:55.853Z,116.53
2018-12-12T21:12:26.148Z,95.60
2018-12-12T21:14:56.224Z,97.25
2018-12-12T21:17:26.485Z,98.53
2018-12-12T21:19:56.913Z,96.00
2018-12-12T21:22:27.466Z,95.67
2018-12-12T21:24:57.215Z,103.90
2018-12-12T21:27:27.099Z,87.53
2018-12-12T21:29:57.427Z,96.27
2018-12-12T21:32:27.464Z,98.53
2018-12-12T21:34:57.563Z,97.57
2018-12-12T21:37:27.569Z,96.13
2018-12-12T21:39:57.317Z,92.47
2018-12-12T21:42:27.176Z,95.80
2018-12-12T21:44:57.652Z,108.07
2018-12-12T21:47:27.469Z,101.37
2018-12-12T21:49:57.604Z,96.30
2018-12-12T21:52:27.515Z,96.47
2018-12-12T21:54:57.793Z,99.57
2018-12-12T21:57:27.749Z,136.00
2018-12-12T21:59:57.832Z,125.40
2018-12-12T22:02:27.623Z,106.67
2018-12-12T22:04:57.578Z,96.63
2018-12-12T22:07:27.428Z,97.77
2018-12-12T22:09:57.141Z,84.80
2018-12-12T22:12:27.217Z,89.83
2018-12-12T22:14:57.439Z,94.40
2018-12-12T22:17:27.241Z,91.70
2018-12-12T22:19:58.683Z,88.55
2018-12-12T22:22:29.571Z,75.43
2018-12-12T22:24:59.804Z,80.17
2018-12-12T22:27:29.573Z,73.50
2018-12-12T22:29:59.425Z,77.67
2018-12-12T22:32:29.349Z,84.63
2018-12-12T22:34:59.112Z,76.47
2018-12-12T22:37:29.271Z,82.10
2018-12-12T22:39:59.239Z,83.00
2018-12-12T22:42:29.348Z,82.40
2018-12-12T22:44:59.575Z,85.43
2018-12-12T22:47:29.474Z,76.53
2018-12-12T22:49:59.205Z,83.77
2018-12-12T22:52:29.260Z,78.90
2018-12-12T22:54:59.472Z,82.57
2018-12-12T22:57:29.519Z,82.47
2018-12-12T22:59:59.922Z,79.80
2018-12-12T23:02:30.987Z,81.75
2018-12-12T23:05:01.268Z,73.85
2018-12-12T23:07:31.585Z,74.17
2018-12-12T23:10:01.339Z,81.50
2018-12-12T23:12:31.451Z,78.72
2018-12-12T23:15:01.448Z,79.47
2018-12-12T23:17:31.523Z,77.47
2018-12-12T23:20:01.542Z,81.93
2018-12-12T23:22:31.435Z,85.33
2018-12-12T23:25:01.436Z,89.47
2018-12-12T23:27:31.432Z,92.50
2018-12-12T23:30:01.350Z,99.97
2018-12-12T23:32:31.413Z,95.07
2018-12-12T23:35:01.245Z,100.60
2018-12-12T23:37:31.336Z,105.07
2018-12-12T23:40:01.182Z,112.67
2018-12-12T23:42:31.352Z,118.25
2018-12-12T23:45:01.249Z,127.33
2018-12-12T23:47:31.378Z,111.42
2018-12-12T23:50:01.741Z,127.00
2018-12-12T23:52:31.665Z,131.43
2018-12-12T23:55:01.957Z,119.00
2018-12-12T23:57:31.792Z,112.23
